Time;durP1;ratioP1;P1;durP2;ratioP2;P2;SDS_P1;SDS_P2;PMS_P1;PMS_P2;Temp;Humidity;BMP_temperature;BMP_pressure;BME280_temperature;BME280_humidity;BME280_pressure;Samples;Min_cycle;Max_cycle;Signal;HPM_P1;HPM_P2
2022/09/14 00:01:28;;;;;;;7.90;4.30;;;;;;;18.62;100.00;99295.44;6157634;23;20296;-91
2022/09/14 00:03:55;;;;;;;6.15;4.10;;;;;;;18.55;100.00;99295.19;6157307;23;20386;-79
2022/09/14 00:06:21;;;;;;;4.72;4.22;;;;;;;18.51;100.00;99286.22;6181801;23;20416;-79
2022/09/14 00:08:52;;;;;;;7.07;4.18;;;;;;;18.54;100.00;99283.19;6156964;23;20021;-79
2022/09/14 00:11:18;;;;;;;5.70;3.95;;;;;;;18.53;100.00;99284.47;6157507;23;20017;-79
2022/09/14 00:13:45;;;;;;;6.50;3.83;;;;;;;18.49;100.00;99289.53;6132432;23;20435;-79
2022/09/14 00:16:17;;;;;;;5.55;3.83;;;;;;;18.48;100.00;99271.13;6157702;23;20325;-79
2022/09/14 00:18:43;;;;;;;4.60;3.67;;;;;;;18.44;100.00;99276.25;6157111;23;20514;-79
2022/09/14 00:21:10;;;;;;;5.22;4.30;;;;;;;18.49;100.00;99281.09;6132982;23;20005;-90
2022/09/14 00:23:37;;;;;;;6.55;4.00;;;;;;;18.45;100.00;99260.94;6132467;23;20178;-91
2022/09/14 00:26:22;;;;;;;5.97;4.00;;;;;;;18.45;100.00;99277.78;6132476;23;20072;-90
2022/09/14 00:28:51;;;;;;;6.68;3.88;;;;;;;18.41;100.00;99266.03;6181630;23;20395;-91
2022/09/14 00:31:18;;;;;;;6.07;3.95;;;;;;;18.43;100.00;99274.72;6182386;23;20016;-92
2022/09/14 00:33:46;;;;;;;4.82;3.90;;;;;;;18.35;100.00;99273.69;6132134;23;20008;-91
2022/09/14 00:36:14;;;;;;;5.53;3.65;;;;;;;18.32;100.00;99263.47;6132647;23;20052;-79
2022/09/14 00:38:40;;;;;;;5.80;4.00;;;;;;;18.24;100.00;99256.09;6181633;23;20084;-79
2022/09/14 00:41:11;;;;;;;7.15;4.00;;;;;;;18.22;100.00;99253.78;6181953;23;20040;-92
2022/09/14 00:43:58;;;;;;;5.35;3.72;;;;;;;18.21;100.00;99263.47;6182127;23;20107;-91
2022/09/14 00:46:26;;;;;;;4.13;3.58;;;;;;;18.18;100.00;99258.88;6183063;23;20059;-90
2022/09/14 00:48:52;;;;;;;6.82;4.07;;;;;;;18.12;100.00;99255.28;6156806;23;20005;-90
2022/09/14 00:51:19;;;;;;;4.95;4.18;;;;;;;18.03;100.00;99245.06;6157605;23;20093;-91
2022/09/14 00:53:45;;;;;;;4.63;3.35;;;;;;;17.94;100.00;99245.31;6157173;23;20013;-90
2022/09/14 00:56:10;;;;;;;5.60;4.35;;;;;;;17.91;100.00;99242.75;6181571;23;20088;-79
2022/09/14 00:58:37;;;;;;;5.40;4.38;;;;;;;17.84;100.00;99240.41;6181613;23;20473;-79
2022/09/14 01:01:02;;;;;;;6.88;4.10;;;;;;;17.75;100.00;99235.06;6156922;23;20071;-91
2022/09/14 01:03:28;;;;;;;6.90;3.97;;;;;;;17.73;100.00;99241.16;6181943;23;20100;-90
2022/09/14 01:06:22;;;;;;;4.90;3.70;;;;;;;17.77;100.00;99241.69;6181783;23;20021;-89
2022/09/14 01:08:59;;;;;;;;;;;;;;;17.75;100.00;99229.44;6157148;23;20024;-90
2022/09/14 01:11:36;;;;;;;6.20;3.90;;;;;;;17.65;100.00;99229.66;6183709;23;20239;-89
2022/09/14 01:14:10;;;;;;;7.05;4.00;;;;;;;17.69;100.00;99218.97;6155922;23;20040;-79
2022/09/14 01:16:59;;;;;;;5.20;3.83;;;;;;;17.57;100.00;99223.00;6181433;23;20099;-79
2022/09/14 01:19:30;;;;;;;4.90;3.95;;;;;;;17.47;100.00;99227.25;6132721;23;20075;-79
2022/09/14 01:22:03;;;;;;;6.30;4.43;;;;;;;17.43;100.00;99223.94;6180964;23;20021;-79
2022/09/14 01:24:38;;;;;;;4.80;4.30;;;;;;;17.39;100.00;99231.81;6181551;23;20013;-79
2022/09/14 01:27:18;;;;;;;6.57;4.10;;;;;;;17.31;100.00;99233.56;6181347;23;20017;-79
2022/09/14 01:29:46;;;;;;;7.20;4.43;;;;;;;17.32;100.00;99229.50;6131693;23;20020;-79
2022/09/14 01:32:26;;;;;;;7.28;4.30;;;;;;;17.30;100.00;99231.28;6131738;23;20051;-79
2022/09/14 01:34:56;;;;;;;6.55;3.80;;;;;;;17.28;100.00;99226.16;6156682;23;20013;-91
2022/09/14 01:37:32;;;;;;;7.10;4.00;;;;;;;17.25;100.00;99232.78;6182517;23;20013;-79
2022/09/14 01:40:06;;;;;;;6.07;4.10;;;;;;;17.24;100.00;99222.81;6180803;23;20016;-79
2022/09/14 01:42:33;;;;;;;4.55;3.70;;;;;;;17.17;100.00;99223.31;6156542;23;20083;-79
2022/09/14 01:45:01;;;;;;;5.70;4.15;;;;;;;17.16;100.00;99230.16;6181336;23;20076;-80
2022/09/14 01:47:26;;;;;;;5.68;4.03;;;;;;;17.20;100.00;99239.09;6156018;23;20087;-79
2022/09/14 01:49:56;;;;;;;4.53;3.78;;;;;;;17.15;100.00;99232.19;6182743;23;20036;-79
2022/09/14 01:52:29;;;;;;;4.60;3.80;;;;;;;17.16;100.00;99224.56;6131650;23;20023;-91
2022/09/14 01:55:30;;;;;;;6.07;4.10;;;;;;;17.14;100.00;99218.72;6156421;23;20020;-91
2022/09/14 01:58:04;;;;;;;7.50;4.30;;;;;;;17.06;100.00;99212.81;6133674;23;20104;-90
2022/09/14 02:00:30;;;;;;;6.60;3.90;;;;;;;17.04;100.00;99220.16;6157236;23;20017;-91
2022/09/14 02:03:04;;;;;;;4.97;3.70;;;;;;;17.01;100.00;99218.38;6157273;23;20184;-91
2022/09/14 02:05:38;;;;;;;5.18;3.90;;;;;;;17.03;100.00;99201.81;6156394;23;20462;-91
2022/09/14 02:08:03;;;;;;;4.15;3.75;;;;;;;17.00;100.00;99209.19;6180977;23;20013;-91
2022/09/14 02:10:29;;;;;;;4.68;3.88;;;;;;;16.89;100.00;99202.78;6181643;23;20012;-90
2022/09/14 02:12:54;;;;;;;5.10;4.13;;;;;;;16.85;100.00;99202.25;6156492;23;20091;-91
2022/09/14 02:15:20;;;;;;;6.97;3.67;;;;;;;16.83;100.00;99194.31;6181622;23;20013;-79
2022/09/14 02:17:46;;;;;;;5.47;4.00;;;;;;;16.78;100.00;99198.63;6156122;23;20269;-79
2022/09/14 02:20:21;;;;;;;5.75;4.38;;;;;;;16.79;100.00;99191.75;6156342;23;20017;-79
2022/09/14 02:22:47;;;;;;;4.85;4.00;;;;;;;16.75;100.00;99199.63;6131812;23;20344;-79
2022/09/14 02:25:13;;;;;;;6.60;4.22;;;;;;;16.73;100.00;99190.97;6131780;23;20013;-80
2022/09/14 02:27:38;;;;;;;4.57;3.97;;;;;;;16.72;100.00;99200.63;6155943;23;20044;-79
2022/09/14 02:30:04;;;;;;;5.95;4.03;;;;;;;16.78;100.00;99203.47;6131496;23;20008;-79
2022/09/14 02:32:39;;;;;;;6.22;4.00;;;;;;;16.78;100.00;99204.22;6156520;23;20355;-91
2022/09/14 02:35:19;;;;;;;5.20;3.80;;;;;;;16.81;100.00;99210.09;6182257;23;20037;-79
2022/09/14 02:38:11;;;;;;;4.93;4.03;;;;;;;16.77;100.00;99201.94;6131057;23;20359;-79
2022/09/14 02:41:01;;;;;;;5.68;4.10;;;;;;;16.77;100.00;99196.34;6181364;23;20360;-80
2022/09/14 02:43:38;;;;;;;8.80;4.15;;;;;;;16.76;100.00;99189.97;6156354;23;20099;-79
2022/09/14 02:46:19;;;;;;;7.50;4.47;;;;;;;16.65;100.00;99181.50;6181095;23;20014;-79
2022/09/14 02:49:22;;;;;;;6.55;4.10;;;;;;;16.59;100.00;99191.88;6155587;23;20352;-79
2022/09/14 02:52:17;;;;;;;5.38;4.28;;;;;;;16.65;100.00;99197.53;6181528;23;20033;-80
2022/09/14 02:54:56;;;;;;;6.93;4.30;;;;;;;16.58;100.00;99178.41;6181186;23;20021;-79
2022/09/14 02:57:22;;;;;;;5.05;3.90;;;;;;;16.53;100.00;99171.47;6181130;23;20021;-79
2022/09/14 02:59:47;;;;;;;6.05;4.10;;;;;;;16.50;100.00;99161.25;6156423;23;20024;-79
2022/09/14 03:02:13;;;;;;;5.15;4.00;;;;;;;16.54;100.00;99169.44;6157426;23;20591;-80
2022/09/14 03:04:38;;;;;;;5.05;3.97;;;;;;;16.53;100.00;99165.88;6182553;23;20120;-79
2022/09/14 04:06:26;;;;;;;6.70;4.88;;;;;;;15.99;100.00;99150.16;6135499;22;1652362;-92
2022/09/14 04:08:52;;;;;;;6.07;4.82;;;;;;;15.96;100.00;99137.16;6224454;23;20023;-91
2022/09/14 04:11:23;;;;;;;7.57;5.30;;;;;;;15.92;100.00;99136.63;6224863;23;20012;-93
2022/09/14 04:13:48;;;;;;;8.80;5.22;;;;;;;15.82;100.00;99111.63;6224844;23;20023;-92
2022/09/14 04:16:15;;;;;;;7.20;5.00;;;;;;;15.85;100.00;99129.47;6223327;23;20066;-92
2022/09/14 04:18:41;;;;;;;6.68;5.10;;;;;;;15.83;100.00;99123.59;6224887;23;20053;-91
2022/09/14 04:21:09;;;;;;;7.55;5.40;;;;;;;15.78;100.00;99136.25;6199047;23;20008;-90
2022/09/14 04:23:35;;;;;;;8.88;6.05;;;;;;;15.74;100.00;99141.28;6223573;23;20095;-91
2022/09/14 04:26:00;;;;;;;6.68;5.97;;;;;;;15.65;100.00;99124.69;6224292;23;20054;-92
2022/09/14 04:28:26;;;;;;;7.85;5.68;;;;;;;15.66;100.00;99131.81;6224799;23;20450;-91
2022/09/14 04:31:00;;;;;;;8.30;5.40;;;;;;;15.72;100.00;99132.66;6223350;23;20015;-91
2022/09/14 04:33:29;;;;;;;7.57;5.00;;;;;;;15.71;100.00;99127.53;6200311;23;20022;-89
2022/09/14 04:36:00;;;;;;;5.95;5.35;;;;;;;15.74;100.00;99135.69;6244697;23;20173;-90
2022/09/14 04:38:29;;;;;;;7.28;5.85;;;;;;;15.62;100.00;99125.66;6194458;23;20035;-83
2022/09/14 04:40:56;;;;;;;7.28;5.57;;;;;;;15.64;100.00;99127.97;6244334;23;20020;-92
2022/09/14 04:43:22;;;;;;;7.85;5.18;;;;;;;15.67;100.00;99127.75;6217559;23;20430;-89
2022/09/14 04:45:48;;;;;;;6.07;5.45;;;;;;;15.68;100.00;99120.91;6219421;23;20051;-94
2022/09/14 04:48:13;;;;;;;8.02;5.35;;;;;;;15.74;100.00;99130.09;6221203;23;20035;-92
2022/09/14 04:50:39;;;;;;;8.55;5.55;;;;;;;15.74;100.00;99135.69;6196944;23;20087;-92
2022/09/14 04:53:04;;;;;;;8.10;5.43;;;;;;;15.74;100.00;99130.09;6191726;23;20353;-93
2022/09/14 04:55:30;;;;;;;6.45;5.75;;;;;;;15.74;100.00;99129.34;6243206;23;20012;-92
2022/09/14 04:57:56;;;;;;;7.32;5.47;;;;;;;15.75;100.00;99114.88;6242817;23;20073;-93
2022/09/14 05:00:22;;;;;;;6.15;5.50;;;;;;;15.79;100.00;99103.47;6218898;23;20401;-93
2022/09/14 05:02:47;;;;;;;8.63;5.80;;;;;;;15.78;100.00;99108.28;6224074;23;20027;-95
2022/09/14 05:05:13;;;;;;;6.70;6.03;;;;;;;15.72;100.00;99104.69;6255974;23;20008;-94
2022/09/14 05:07:38;;;;;;;6.95;5.57;;;;;;;15.80;100.00;99105.78;6255122;22;20034;-94
2022/09/14 05:10:04;;;;;;;10.40;5.03;;;;;;;15.83;100.00;99095.63;6193399;23;20008;-92
2022/09/14 05:12:30;;;;;;;7.68;5.15;;;;;;;15.80;100.00;99105.78;6217742;23;20012;-95
2022/09/14 05:14:55;;;;;;;6.55;5.43;;;;;;;15.82;100.00;99108.06;6216569;23;20409;-96
2022/09/14 05:17:21;;;;;;;9.40;5.07;;;;;;;15.88;100.00;99106.09;6168733;23;20008;-94
2022/09/14 05:19:46;;;;;;;6.15;5.07;;;;;;;15.93;100.00;99091.41;6216224;23;20070;-95
2022/09/14 05:22:14;;;;;;;5.75;4.75;;;;;;;16.03;100.00;99105.94;6191672;23;20015;-91
2022/09/14 13:56:30;;;;;;;5.60;3.63;;;;;;;28.42;61.26;98992.88;6299822;22;20029;-80
2022/09/14 13:59:10;;;;;;;7.35;4.00;;;;;;;28.43;60.36;98974.41;6278009;22;20460;-81
2022/09/14 14:01:54;;;;;;;8.43;3.53;;;;;;;28.51;59.90;98969.38;6305615;22;20015;-81
2022/09/14 14:04:35;;;;;;;6.10;3.60;;;;;;;28.51;59.96;98957.97;6276476;22;20086;-81
2022/09/14 14:07:21;;;;;;;4.93;3.58;;;;;;;28.42;59.75;98961.50;6309202;22;20035;-81
2022/09/14 14:09:50;;;;;;;4.93;3.63;;;;;;;28.33;60.21;98959.31;6284477;22;20066;-85
2022/09/14 14:12:38;;;;;;;6.20;3.85;;;;;;;28.20;60.30;98956.78;6303871;22;20015;-86
2022/09/14 14:15:09;;;;;;;6.13;3.70;;;;;;;28.31;59.93;98967.69;6277085;22;20029;-86
2022/09/14 14:17:37;;;;;;;4.25;3.60;;;;;;;28.04;60.51;98973.25;6303337;22;20019;-87
2022/09/14 14:20:34;;;;;;;6.78;3.20;;;;;;;28.09;60.73;98971.53;6273177;22;20392;-87
2022/09/14 14:23:11;;;;;;;7.57;3.72;;;;;;;27.89;61.46;98961.22;6273265;22;20015;-87
2022/09/14 14:25:43;;;;;;;7.65;3.58;;;;;;;28.01;60.37;98962.25;6290982;22;20022;-79
2022/09/14 14:28:17;;;;;;;6.95;3.47;;;;;;;28.06;61.13;98958.41;6332399;22;20017;-79
2022/09/14 14:30:43;;;;;;;6.40;3.70;;;;;;;28.09;60.87;98952.34;6303594;22;20018;-79
2022/09/14 14:33:12;;;;;;;5.40;3.80;;;;;;;28.19;60.71;98955.25;6277742;22;20002;-79
2022/09/14 14:35:38;;;;;;;5.60;3.40;;;;;;;28.28;60.27;98957.47;6305500;22;20402;-79
2022/09/14 14:38:04;;;;;;;7.63;3.65;;;;;;;28.32;59.84;98974.91;6334693;22;20038;-78
2022/09/14 14:40:30;;;;;;;6.57;3.55;;;;;;;28.24;60.13;98966.44;6334659;22;20017;-78
2022/09/14 14:42:57;;;;;;;5.05;3.28;;;;;;;28.11;60.64;98968.84;6307514;22;20062;-78
2022/09/14 14:45:25;;;;;;;5.35;3.40;;;;;;;28.12;60.42;98978.91;6309053;22;20010;-79
2022/09/14 14:47:51;;;;;;;5.85;3.63;;;;;;;28.12;60.43;98973.22;6309833;22;20011;-79
2022/09/14 14:50:19;;;;;;;5.20;3.47;;;;;;;28.21;60.91;98972.56;6337480;22;19999;-79
2022/09/14 14:52:45;;;;;;;6.22;3.38;;;;;;;27.98;60.94;98958.50;6309726;22;20324;-79
2022/09/14 14:55:10;;;;;;;8.35;3.60;;;;;;;28.01;61.22;98968.72;6309196;22;20089;-79
2022/09/14 14:57:38;;;;;;;5.05;3.28;;;;;;;28.11;61.43;98951.72;6336467;22;20003;-79
2022/09/14 15:00:07;;;;;;;4.90;3.47;;;;;;;28.15;61.41;98967.09;6337305;22;20566;-79
2022/09/14 15:02:32;;;;;;;6.93;3.20;;;;;;;27.99;61.91;98956.38;6309192;22;20060;-79
2022/09/14 15:04:58;;;;;;;7.63;3.40;;;;;;;27.83;62.01;98965.06;6337242;22;20440;-79
2022/09/14 15:07:23;;;;;;;4.03;3.30;;;;;;;27.94;61.94;98954.53;6335885;22;20030;-78
2022/09/14 15:09:49;;;;;;;7.88;3.25;;;;;;;27.95;61.73;98953.19;6337402;22;20011;-79
2022/09/14 15:12:14;;;;;;;5.45;3.10;;;;;;;27.88;61.13;98954.00;6336961;22;20021;-78
2022/09/14 15:14:40;;;;;;;6.38;3.58;;;;;;;27.79;61.36;98959.03;6336893;22;20015;-78
2022/09/14 15:17:05;;;;;;;5.40;3.22;;;;;;;27.87;61.07;98952.50;6337131;22;20009;-78
2022/09/14 15:19:31;;;;;;;6.25;3.13;;;;;;;27.74;61.40;98951.47;6336681;22;20007;-79
2022/09/14 15:21:56;;;;;;;5.88;3.10;;;;;;;27.78;61.75;98956.78;6336953;22;20099;-79
2022/09/14 15:24:22;;;;;;;8.45;3.55;;;;;;;27.77;62.37;98950.31;6336897;22;20011;-79
2022/09/14 15:26:48;;;;;;;6.03;3.63;;;;;;;27.82;62.36;98957.84;6336801;22;20007;-79
2022/09/14 15:29:16;;;;;;;6.13;3.05;;;;;;;27.80;62.41;98952.00;6337118;22;20011;-79
2022/09/14 15:31:42;;;;;;;5.65;3.13;;;;;;;27.78;62.48;98939.69;6336677;22;20063;-79
2022/09/14 15:34:07;;;;;;;7.32;3.00;;;;;;;27.89;62.65;98939.19;6337212;22;20437;-79
2022/09/14 15:36:38;;;;;;;4.07;3.05;;;;;;;27.94;61.97;98940.28;6308699;22;20015;-79
2022/09/14 15:39:05;;;;;;;7.00;3.33;;;;;;;27.80;62.19;98932.03;6309037;22;20006;-78
2022/09/14 15:41:31;;;;;;;8.98;3.40;;;;;;;27.73;62.69;98938.56;6283053;22;20011;-78
2022/09/14 15:43:57;;;;;;;6.80;3.50;;;;;;;27.78;63.21;98931.84;6337558;22;20081;-78
2022/09/14 15:46:22;;;;;;;12.23;3.55;;;;;;;27.84;62.38;98925.94;6309119;22;20309;-78
2022/09/14 15:48:48;;;;;;;4.22;3.10;;;;;;;27.85;61.66;98932.38;6336878;22;20015;-78
2022/09/14 15:51:13;;;;;;;6.68;3.30;;;;;;;27.87;62.03;98935.41;6336865;22;20344;-78
2022/09/14 15:53:39;;;;;;;5.60;3.10;;;;;;;27.76;62.07;98917.47;6336535;22;20010;-79
2022/09/14 15:56:12;;;;;;;9.48;3.13;;;;;;;27.69;62.01;98928.91;6336693;22;20014;-79
2022/09/14 15:58:37;;;;;;;7.35;3.25;;;;;;;27.60;62.40;98930.31;6336774;22;20018;-79
2022/09/14 16:01:11;;;;;;;5.22;3.08;;;;;;;27.30;63.28;98919.09;6336847;22;20015;-79
2022/09/14 16:03:39;;;;;;;6.00;3.10;;;;;;;27.15;63.21;98919.97;6308998;22;20017;-79
2022/09/14 16:06:05;;;;;;;5.90;3.10;;;;;;;26.97;63.67;98917.63;6309259;22;20082;-79
2022/09/14 16:08:31;;;;;;;4.95;3.00;;;;;;;26.89;64.32;98909.13;6308901;22;20444;-79
2022/09/14 16:11:00;;;;;;;8.07;3.65;;;;;;;26.88;64.82;98908.38;6309020;22;20006;-79
2022/09/14 16:13:26;;;;;;;15.75;5.40;;;;;;;26.76;65.47;98909.34;6282774;22;20011;-79
2022/09/14 16:15:52;;;;;;;9.65;4.28;;;;;;;26.65;65.67;98906.94;6308881;22;20052;-79
2022/09/14 16:18:18;;;;;;;11.82;4.38;;;;;;;26.57;66.12;98895.59;6308846;22;20075;-79
2022/09/14 16:20:44;;;;;;;6.28;3.40;;;;;;;26.45;66.19;98900.19;6335436;22;20421;-79
2022/09/14 16:23:10;;;;;;;7.72;3.60;;;;;;;26.48;66.42;98899.06;6335718;22;20048;-79
2022/09/14 16:25:54;;;;;;;11.63;4.32;;;;;;;26.49;66.44;98889.16;6312242;22;20068;-79
2022/09/14 16:28:19;;;;;;;9.55;3.80;;;;;;;26.43;66.53;98880.13;6336161;22;20014;-78
2022/09/14 16:30:46;;;;;;;7.53;2.97;;;;;;;26.41;66.37;98874.22;6336005;22;20018;-78
2022/09/14 16:33:12;;;;;;;5.65;2.88;;;;;;;26.27;66.98;98885.09;6337605;22;20550;-78
2022/09/14 16:35:38;;;;;;;12.98;5.03;;;;;;;26.29;66.67;98884.50;6337840;22;20014;-78
2022/09/14 16:38:03;;;;;;;12.25;4.95;;;;;;;26.28;67.21;98880.19;6337599;22;20007;-78
2022/09/14 16:40:30;;;;;;;7.10;3.67;;;;;;;26.21;67.65;98878.09;6310013;22;20018;-78
2022/09/14 16:42:56;;;;;;;6.00;2.92;;;;;;;26.15;68.10;98888.91;6337628;22;20014;-78
2022/09/14 16:45:21;;;;;;;6.60;3.25;;;;;;;26.07;68.69;98876.78;6337596;22;20018;-78
2022/09/14 16:47:47;;;;;;;6.07;3.20;;;;;;;26.01;69.07;98876.97;6309547;22;20568;-79
2022/09/14 16:50:12;;;;;;;9.05;3.45;;;;;;;25.87;69.69;98887.81;6334278;22;20361;-79
2022/09/14 16:52:38;;;;;;;9.00;3.50;;;;;;;25.76;70.14;98891.03;6303390;22;20054;-78
2022/09/14 16:55:04;;;;;;;5.28;3.17;;;;;;;25.75;70.44;98886.69;6307699;22;20078;-79
2022/09/14 16:57:29;;;;;;;8.10;3.58;;;;;;;25.56;71.39;98877.78;6334857;22;20345;-78
2022/09/14 16:59:55;;;;;;;5.72;3.10;;;;;;;25.60;71.88;98885.97;6306584;22;20007;-78
2022/09/14 17:02:20;;;;;;;5.88;3.13;;;;;;;25.52;72.51;98900.09;6335009;22;20382;-78
2022/09/14 17:04:46;;;;;;;6.78;3.20;;;;;;;25.40;73.15;98896.13;6308238;22;20006;-78
2022/09/14 17:07:11;;;;;;;8.00;3.53;;;;;;;25.27;74.42;98896.31;6333740;22;20014;-77
2022/09/14 17:09:37;;;;;;;6.15;3.80;;;;;;;25.20;74.73;98897.06;6336969;22;20011;-78
2022/09/14 17:12:02;;;;;;;5.45;3.60;;;;;;;25.16;74.65;98893.84;6309372;22;20061;-78
2022/09/14 17:14:31;;;;;;;6.80;3.70;;;;;;;25.15;75.32;98895.19;6336409;22;20010;-78
2022/09/14 17:16:57;;;;;;;5.90;3.30;;;;;;;25.01;75.68;98900.25;6309882;22;20044;-78
2022/09/14 17:19:23;;;;;;;7.82;3.42;;;;;;;24.97;75.83;98900.63;6309405;22;20042;-78
2022/09/14 17:21:49;;;;;;;6.85;3.50;;;;;;;24.85;75.96;98893.03;6309168;22;20117;-78
2022/09/14 17:24:17;;;;;;;5.95;3.47;;;;;;;24.86;75.90;98894.53;6337296;22;20452;-78
2022/09/14 17:26:43;;;;;;;7.78;3.50;;;;;;;24.81;75.71;98893.38;6309439;22;20014;-78
2022/09/14 17:29:09;;;;;;;9.73;3.30;;;;;;;24.83;76.05;98890.72;6336578;22;20015;-78
2022/09/14 17:31:37;;;;;;;7.50;3.30;;;;;;;24.73;75.91;98878.41;6283257;22;20141;-78
2022/09/14 17:34:04;;;;;;;6.68;3.30;;;;;;;24.77;76.01;98887.31;6309786;22;20072;-78
2022/09/14 17:36:30;;;;;;;5.78;3.25;;;;;;;24.74;75.76;98891.28;6308893;22;20007;-78
2022/09/14 17:38:57;;;;;;;4.65;3.22;;;;;;;24.63;75.90;98880.25;6337303;22;20018;-78
2022/09/14 17:41:26;;;;;;;8.27;3.50;;;;;;;24.63;76.18;98890.84;6337137;22;20351;-77
2022/09/14 17:43:57;;;;;;;5.47;3.65;;;;;;;24.55;76.59;98896.47;6336079;22;20006;-78
2022/09/14 17:46:23;;;;;;;8.85;3.42;;;;;;;24.55;76.86;98899.31;6307089;22;20364;-78
2022/09/14 17:48:49;;;;;;;9.27;3.38;;;;;;;24.56;76.99;98889.50;6309223;22;20061;-78
2022/09/14 17:51:20;;;;;;;8.25;3.47;;;;;;;24.51;77.39;98896.06;6309495;22;20014;-78
2022/09/14 17:53:48;;;;;;;9.27;3.55;;;;;;;24.39;78.67;98895.66;6308925;22;20345;-77
2022/09/14 17:56:16;;;;;;;8.15;3.60;;;;;;;24.22;79.76;98886.13;6336653;22;20014;-78
2022/09/14 17:58:42;;;;;;;6.45;3.50;;;;;;;24.18;80.66;98888.56;6308305;22;19998;-78
2022/09/14 18:01:16;;;;;;;5.00;3.45;;;;;;;24.03;81.46;98884.28;6336556;22;20332;-78
2022/09/14 18:03:43;;;;;;;8.63;3.65;;;;;;;24.02;81.83;98891.28;6309330;22;20038;-78
2022/09/14 18:06:10;;;;;;;9.02;3.70;;;;;;;23.94;82.95;98893.28;6309313;22;20398;-78
2022/09/14 18:08:37;;;;;;;9.90;3.58;;;;;;;23.87;83.23;98896.84;6334277;22;20007;-78
2022/09/14 18:11:05;;;;;;;8.63;3.85;;;;;;;23.80;84.25;98903.22;6306172;22;20085;-77
2022/09/14 18:13:30;;;;;;;7.57;3.60;;;;;;;23.66;85.57;98893.28;6308224;22;20057;-79
2022/09/14 18:15:56;;;;;;;8.55;3.90;;;;;;;23.45;87.01;98875.59;6309125;22;20014;-78
2022/09/14 18:18:22;;;;;;;8.63;3.53;;;;;;;23.46;87.57;98882.75;6334019;22;20086;-78
2022/09/14 18:20:48;;;;;;;8.50;3.63;;;;;;;23.28;89.52;98883.72;6334107;22;20034;-78
2022/09/14 18:23:17;;;;;;;6.55;3.92;;;;;;;23.09;91.28;98879.00;6334065;22;20448;-80
2022/09/14 18:25:42;;;;;;;9.68;3.95;;;;;;;22.91;92.69;98879.97;6281690;22;20065;-78
2022/09/14 18:28:08;;;;;;;5.28;3.60;;;;;;;22.75;93.92;98881.13;6305328;22;20014;-78
2022/09/14 18:30:34;;;;;;;7.53;3.95;;;;;;;22.74;94.38;98885.25;6306474;22;20017;-78
2022/09/14 18:32:59;;;;;;;4.88;3.63;;;;;;;22.69;94.56;98886.13;6331566;22;20086;-78
2022/09/14 18:35:25;;;;;;;10.77;4.07;;;;;;;22.68;94.86;98887.41;6305897;22;20010;-77
2022/09/14 18:37:51;;;;;;;8.98;3.60;;;;;;;22.62;95.71;98875.47;6305614;22;20015;-77
2022/09/14 18:40:16;;;;;;;7.30;4.30;;;;;;;22.55;96.41;98870.50;6335659;22;20021;-79
2022/09/14 18:42:42;;;;;;;6.68;3.70;;;;;;;22.47;96.70;98875.28;6335398;22;20007;-78
2022/09/14 18:45:08;;;;;;;6.15;3.58;;;;;;;22.44;97.01;98884.88;6308993;22;20010;-78
2022/09/14 18:47:33;;;;;;;8.82;3.72;;;;;;;22.48;96.84;98876.81;6306871;22;20009;-77
2022/09/14 18:49:59;;;;;;;8.52;3.58;;;;;;;22.37;96.83;98877.81;6334263;22;20015;-77
2022/09/14 18:52:25;;;;;;;6.85;3.60;;;;;;;22.39;96.72;98871.63;6334541;22;20336;-78
2022/09/14 18:54:50;;;;;;;8.75;3.88;;;;;;;22.33;97.77;98871.72;6335143;22;20014;-79
2022/09/14 18:57:18;;;;;;;4.60;3.63;;;;;;;22.25;97.27;98868.81;6331435;22;20365;-79
2022/09/14 18:59:43;;;;;;;4.97;3.92;;;;;;;22.24;97.85;98858.81;6333076;22;20375;-79
2022/09/14 19:02:10;;;;;;;5.55;3.58;;;;;;;22.08;99.00;98857.09;6332740;22;20085;-79
2022/09/14 19:04:36;;;;;;;6.18;4.00;;;;;;;22.10;98.93;98865.03;6333266;22;20025;-79
2022/09/14 19:07:02;;;;;;;6.70;3.75;;;;;;;22.03;99.24;98872.09;6332744;22;20377;-79
2022/09/14 19:09:28;;;;;;;7.28;3.70;;;;;;;21.98;99.41;98864.50;6306419;22;20006;-79
2022/09/14 19:11:53;;;;;;;5.10;3.58;;;;;;;22.03;98.46;98854.41;6305278;22;20444;-79
2022/09/14 19:14:19;;;;;;;6.57;4.00;;;;;;;21.92;100.00;98865.91;6332288;22;20015;-79
2022/09/14 19:16:45;;;;;;;8.00;4.03;;;;;;;21.90;99.64;98865.66;6304002;22;20014;-79
2022/09/14 19:19:13;;;;;;;7.53;4.05;;;;;;;21.90;99.12;98849.47;6305207;22;20037;-83
2022/09/14 19:21:39;;;;;;;6.55;3.70;;;;;;;21.88;98.96;98844.38;6333346;22;20011;-83
2022/09/14 19:24:07;;;;;;;6.20;4.13;;;;;;;21.95;99.20;98843.00;6305736;22;20484;-83
2022/09/14 19:26:37;;;;;;;6.18;3.97;;;;;;;21.98;98.67;98853.19;6331019;22;20396;-83
2022/09/14 19:29:03;;;;;;;7.82;3.70;;;;;;;21.93;98.09;98848.41;6305310;22;20018;-83
2022/09/14 19:31:29;;;;;;;9.07;4.28;;;;;;;21.96;97.80;98850.16;6306425;22;20046;-83
2022/09/14 19:33:59;;;;;;;5.45;3.47;;;;;;;21.98;96.76;98841.91;6279394;22;20014;-83
2022/09/14 19:36:26;;;;;;;8.30;4.50;;;;;;;22.06;96.16;98847.66;6305639;22;20066;-83
2022/09/14 19:38:52;;;;;;;6.80;3.53;;;;;;;22.06;95.93;98842.78;6331743;22;20708;-82
2022/09/14 19:41:19;;;;;;;6.63;3.45;;;;;;;22.12;95.61;98843.41;6334292;22;20019;-83
2022/09/14 19:43:44;;;;;;;6.63;3.50;;;;;;;22.13;95.28;98852.63;6306091;22;20482;-84
2022/09/14 19:46:13;;;;;;;7.20;3.72;;;;;;;22.12;95.42;98846.22;6333330;22;20007;-83
2022/09/14 19:48:39;;;;;;;8.07;3.60;;;;;;;22.09;95.64;98850.16;6332511;22;20007;-84
2022/09/14 19:51:08;;;;;;;6.88;3.90;;;;;;;22.06;95.47;98853.31;6333587;22;20371;-83
2022/09/14 19:53:35;;;;;;;7.40;3.63;;;;;;;22.13;95.13;98853.41;6305229;22;20432;-84
2022/09/14 19:56:07;;;;;;;5.63;3.95;;;;;;;22.13;95.01;98852.63;6306316;22;20467;-84
2022/09/14 19:58:37;;;;;;;8.20;3.85;;;;;;;22.10;94.40;98848.09;6306384;22;20021;-84
2022/09/14 20:01:04;;;;;;;6.53;3.53;;;;;;;22.10;94.46;98860.16;6304870;22;20038;-79
2022/09/14 20:03:31;;;;;;;7.70;3.95;;;;;;;22.13;94.10;98853.41;6332704;22;20011;-78
2022/09/14 20:06:00;;;;;;;5.70;3.50;;;;;;;22.17;93.16;98848.19;6333753;22;20009;-79
2022/09/14 20:08:26;;;;;;;6.93;3.17;;;;;;;22.39;91.49;98861.09;6334924;22;20017;-79
2022/09/14 20:10:52;;;;;;;7.00;3.42;;;;;;;22.47;90.73;98847.03;6307203;22;20075;-79
2022/09/14 20:13:18;;;;;;;7.82;3.65;;;;;;;22.60;89.88;98844.94;6306759;22;20011;-78
2022/09/14 20:15:43;;;;;;;5.82;3.15;;;;;;;22.68;89.38;98839.38;6334814;22;20046;-79
2022/09/14 20:18:09;;;;;;;7.45;3.20;;;;;;;22.71;89.51;98838.28;6334307;22;20003;-79
2022/09/14 20:20:36;;;;;;;6.65;3.05;;;;;;;22.86;88.55;98849.75;6334549;22;20030;-79
2022/09/14 20:23:02;;;;;;;6.15;3.15;;;;;;;22.92;88.41;98853.22;6334790;22;19995;-79
2022/09/14 20:25:28;;;;;;;7.95;3.10;;;;;;;22.92;88.14;98853.22;6334529;22;20011;-79
2022/09/14 20:27:54;;;;;;;8.35;3.45;;;;;;;22.89;88.66;98848.66;6307247;22;20715;-79
2022/09/14 20:30:20;;;;;;;8.38;3.58;;;;;;;22.87;88.85;98856.94;6334917;22;20014;-79
2022/09/14 20:32:46;;;;;;;5.82;3.03;;;;;;;22.87;88.98;98861.81;6334378;22;20344;-79
2022/09/14 20:35:12;;;;;;;5.22;3.22;;;;;;;22.79;89.64;98847.59;6307151;22;20014;-79
2022/09/14 20:37:37;;;;;;;4.97;3.22;;;;;;;22.84;88.74;98846.72;6307292;22;20018;-79
2022/09/14 20:40:04;;;;;;;5.40;3.17;;;;;;;22.82;89.05;98857.81;6307738;22;20019;-79
2022/09/14 20:42:30;;;;;;;5.13;3.10;;;;;;;22.87;88.57;98862.59;6334877;22;20014;-79
2022/09/14 20:44:55;;;;;;;5.00;3.22;;;;;;;22.89;88.10;98853.56;6334950;22;20014;-79
2022/09/14 20:47:21;;;;;;;9.02;3.35;;;;;;;22.95;87.94;98845.69;6333397;22;20071;-78
2022/09/14 20:49:47;;;;;;;6.35;3.20;;;;;;;23.00;87.72;98854.06;6334858;22;20300;-79
2022/09/14 20:52:13;;;;;;;5.05;3.25;;;;;;;22.96;87.77;98850.03;6306530;22;20429;-79
2022/09/14 20:54:39;;;;;;;5.55;3.00;;;;;;;22.93;87.89;98843.41;6334378;22;19999;-79
2022/09/14 20:57:04;;;;;;;5.47;3.55;;;;;;;22.86;87.91;98849.75;6306831;22;20019;-79
2022/09/14 20:59:30;;;;;;;7.60;3.60;;;;;;;22.88;87.88;98844.31;6334577;22;20359;-79
2022/09/14 21:01:55;;;;;;;6.25;3.35;;;;;;;22.86;88.83;98846.91;6334142;22;20251;-79
2022/09/14 21:04:22;;;;;;;6.38;3.40;;;;;;;22.86;88.76;98844.09;6279617;22;20011;-79
2022/09/14 21:06:51;;;;;;;6.35;3.30;;;;;;;22.93;87.57;98848.31;6306709;22;20364;-79